createdAt,value
2023-12-20T00:03:58.459Z,12.32
2023-12-20T00:06:27.107Z,10.77
2023-12-20T00:08:55.672Z,12.88
2023-12-20T00:11:23.583Z,10.40
2023-12-20T00:13:52.288Z,13.30
2023-12-20T00:16:22.287Z,12.38
2023-12-20T00:18:50.302Z,11.48
2023-12-20T00:21:19.225Z,11.95
2023-12-20T00:23:47.297Z,10.20
2023-12-20T00:26:16.374Z,12.25
2023-12-20T00:28:44.399Z,10.75
2023-12-20T00:31:13.203Z,9.23
2023-12-20T00:33:45.730Z,12.98
2023-12-20T00:36:14.363Z,9.18
2023-12-20T00:38:42.342Z,11.18
2023-12-20T00:41:11.364Z,13.25
2023-12-20T00:43:39.352Z,11.43
2023-12-20T00:46:07.855Z,10.15
2023-12-20T00:48:38.900Z,12.02
2023-12-20T00:51:09.246Z,12.32
2023-12-20T00:53:37.856Z,10.60
2023-12-20T00:56:06.585Z,11.25
2023-12-20T00:58:34.940Z,11.77
2023-12-20T01:01:03.017Z,11.73
2023-12-20T01:03:32.344Z,9.95
2023-12-20T01:06:00.501Z,11.82
2023-12-20T01:08:30.327Z,9.18
2023-12-20T01:10:58.853Z,13.85
2023-12-20T01:13:26.989Z,11.20
2023-12-20T01:15:54.990Z,9.45
2023-12-20T01:18:24.312Z,8.18
2023-12-20T01:20:52.281Z,11.48
2023-12-20T01:23:20.868Z,9.80
2023-12-20T01:25:50.990Z,8.73
2023-12-20T01:28:19.446Z,10.68
2023-12-20T01:30:47.647Z,8.77
2023-12-20T01:33:16.379Z,7.35
2023-12-20T01:35:44.439Z,8.55
2023-12-20T01:38:13.284Z,9.52
2023-12-20T01:40:41.731Z,10.27
2023-12-20T01:43:13.354Z,11.15
2023-12-20T01:45:42.879Z,4.25
2023-12-20T01:48:12.344Z,8.87
2023-12-20T01:50:43.645Z,6.13
2023-12-20T01:53:14.326Z,9.32
2023-12-20T01:55:44.218Z,10.30
2023-12-20T01:58:14.490Z,10.43
2023-12-20T02:00:44.427Z,7.85
2023-12-20T02:03:13.569Z,8.98
2023-12-20T02:05:42.503Z,6.50
2023-12-20T02:08:11.016Z,7.95
2023-12-20T02:10:39.590Z,9.00
2023-12-20T02:13:06.603Z,6.43
2023-12-20T02:15:38.598Z,8.52
2023-12-20T02:18:08.110Z,6.28
2023-12-20T02:20:36.064Z,7.18
2023-12-20T02:23:06.703Z,9.18
2023-12-20T02:25:34.939Z,8.45
2023-12-20T02:28:03.283Z,5.22
2023-12-20T02:30:32.635Z,9.57
2023-12-20T02:33:02.163Z,9.77
2023-12-20T02:35:30.796Z,9.35
2023-12-20T02:37:59.397Z,8.25
2023-12-20T02:40:28.956Z,7.00
2023-12-20T02:42:56.926Z,3.92
2023-12-20T02:45:26.045Z,8.65
2023-12-20T02:47:54.054Z,9.98
2023-12-20T02:50:22.667Z,9.57
2023-12-20T02:52:51.487Z,9.10
2023-12-20T02:55:19.688Z,14.50
2023-12-20T02:57:49.321Z,9.52
2023-12-20T03:00:19.012Z,11.40
2023-12-20T03:02:46.925Z,9.40
2023-12-20T03:05:15.650Z,9.05
2023-12-20T03:07:44.415Z,12.15
2023-12-20T03:10:19.959Z,12.32
2023-12-20T03:12:54.414Z,12.23
2023-12-20T03:15:22.437Z,14.07
2023-12-20T03:17:50.757Z,10.43
2023-12-20T03:20:20.080Z,10.45
2023-12-20T03:22:47.970Z,11.20
2023-12-20T03:25:16.619Z,10.88
2023-12-20T03:27:45.388Z,14.45
2023-12-20T03:30:15.861Z,9.85
2023-12-20T03:32:43.985Z,11.70
2023-12-20T03:35:13.014Z,13.75
2023-12-20T03:37:41.118Z,11.23
2023-12-20T03:40:10.900Z,11.82
2023-12-20T03:42:39.376Z,14.98
2023-12-20T03:45:09.238Z,13.43
2023-12-20T03:47:39.594Z,12.00
2023-12-20T03:50:08.903Z,14.90
2023-12-20T03:52:36.815Z,11.88
2023-12-20T03:55:06.321Z,13.05
2023-12-20T03:57:34.440Z,11.85
2023-12-20T04:00:02.811Z,11.85
2023-12-20T04:02:42.569Z,15.68
2023-12-20T04:05:11.757Z,13.18
2023-12-20T04:07:40.443Z,15.25
2023-12-20T04:10:10.986Z,13.15
2023-12-20T04:15:10.675Z,17.20
2023-12-20T04:17:40.177Z,14.57
2023-12-20T04:20:10.960Z,15.32
2023-12-20T04:22:39.842Z,14.02
2023-12-20T04:25:08.461Z,11.00
2023-12-20T04:27:37.046Z,19.63
2023-12-20T04:30:06.065Z,15.85
2023-12-20T04:32:34.414Z,14.65
2023-12-20T04:35:02.453Z,11.57
2023-12-20T04:37:32.447Z,13.90
2023-12-20T04:40:00.550Z,17.83
2023-12-20T04:42:29.224Z,14.18
2023-12-20T04:44:57.643Z,10.32
2023-12-20T04:47:25.775Z,17.50
2023-12-20T04:49:53.843Z,17.45
2023-12-20T04:52:23.155Z,11.18
2023-12-20T04:54:52.532Z,16.90
2023-12-20T04:57:21.310Z,14.32
2023-12-20T04:59:50.172Z,15.02
2023-12-20T05:02:18.440Z,12.18
2023-12-20T05:04:46.406Z,16.70
2023-12-20T05:07:15.727Z,11.30
2023-12-20T05:09:43.936Z,11.30
2023-12-20T05:12:14.068Z,15.07
2023-12-20T05:14:42.794Z,15.50
2023-12-20T05:17:10.760Z,16.45
2023-12-20T05:19:39.423Z,14.57
2023-12-20T05:22:08.162Z,14.25
2023-12-20T05:24:36.454Z,19.48
2023-12-20T05:27:04.437Z,20.83
2023-12-20T05:29:34.792Z,17.80
2023-12-20T05:32:02.761Z,20.13
2023-12-20T05:34:31.460Z,13.20
2023-12-20T05:37:00.677Z,12.85
2023-12-20T05:39:29.550Z,21.90
2023-12-20T05:41:57.538Z,13.77
2023-12-20T05:44:26.778Z,21.40
2023-12-20T05:46:56.081Z,13.85
2023-12-20T05:51:53.417Z,18.52
2023-12-20T05:54:21.615Z,15.93
2023-12-20T05:56:49.731Z,17.88
2023-12-20T05:59:18.841Z,14.48
2023-12-20T06:01:47.009Z,16.95
2023-12-20T06:04:17.190Z,12.20
2023-12-20T06:06:46.431Z,15.43
2023-12-20T06:09:17.341Z,19.00
2023-12-20T06:11:45.963Z,12.55
2023-12-20T06:14:14.473Z,17.10
2023-12-20T06:16:42.730Z,15.13
2023-12-20T06:19:10.853Z,19.73
2023-12-20T06:21:44.411Z,21.20
2023-12-20T06:24:13.479Z,14.55
2023-12-20T06:26:40.480Z,14.93
2023-12-20T06:29:09.801Z,13.45
2023-12-20T06:31:37.907Z,17.60
2023-12-20T06:34:06.597Z,15.27
2023-12-20T06:36:35.264Z,15.27
2023-12-20T06:39:05.914Z,20.60
2023-12-20T06:41:34.531Z,21.98
2023-12-20T06:44:03.179Z,18.30
2023-12-20T06:46:31.378Z,13.57
2023-12-20T06:48:59.414Z,21.13
2023-12-20T06:51:29.123Z,12.95
2023-12-20T06:53:57.130Z,20.83
2023-12-20T06:56:26.988Z,24.80
2023-12-20T06:58:55.656Z,13.60
2023-12-20T07:01:23.840Z,12.27
2023-12-20T07:03:52.104Z,16.95
2023-12-20T07:06:20.967Z,16.75
2023-12-20T07:08:49.096Z,13.13
2023-12-20T07:11:17.092Z,11.18
2023-12-20T07:13:48.845Z,20.17
2023-12-20T07:16:16.859Z,16.08
2023-12-20T07:18:44.967Z,13.07
2023-12-20T07:21:14.436Z,15.48
2023-12-20T07:23:42.565Z,14.35
2023-12-20T07:26:11.552Z,17.65
2023-12-20T07:28:39.606Z,15.80
2023-12-20T07:31:09.292Z,18.10
2023-12-20T07:33:39.655Z,18.10
2023-12-20T07:36:09.727Z,14.98
2023-12-20T07:38:37.731Z,18.95
2023-12-20T07:41:06.563Z,16.08
2023-12-20T07:43:35.354Z,14.35
2023-12-20T07:46:07.185Z,13.57
2023-12-20T07:48:38.388Z,13.90
2023-12-20T07:51:07.134Z,15.63
2023-12-20T07:53:35.344Z,12.98
2023-12-20T07:56:04.380Z,18.83
2023-12-20T07:58:41.303Z,13.95
2023-12-20T08:01:21.497Z,18.50
2023-12-20T08:03:52.860Z,11.98
2023-12-20T08:06:22.641Z,16.02
2023-12-20T08:08:58.158Z,12.82
2023-12-20T08:13:59.476Z,12.90
2023-12-20T08:16:28.321Z,16.20
2023-12-20T08:19:00.456Z,11.27
2023-12-20T08:21:28.706Z,9.85
2023-12-20T08:23:56.783Z,10.45
2023-12-20T08:26:25.811Z,14.98
2023-12-20T08:28:53.855Z,10.85
2023-12-20T08:31:22.679Z,14.07
2023-12-20T08:33:52.330Z,11.23
2023-12-20T08:36:22.682Z,15.05
2023-12-20T08:38:52.020Z,14.40
2023-12-20T08:41:20.350Z,11.23
2023-12-20T08:43:48.912Z,13.02
2023-12-20T08:46:18.006Z,11.65
2023-12-20T08:48:46.428Z,17.23
2023-12-20T08:51:15.551Z,14.73
2023-12-20T08:53:46.878Z,15.63
2023-12-20T08:56:15.231Z,13.75
2023-12-20T08:58:43.471Z,12.02
2023-12-20T09:01:12.671Z,16.10
2023-12-20T09:03:42.217Z,14.73
2023-12-20T09:06:10.868Z,13.57
2023-12-20T09:08:39.502Z,18.42
2023-12-20T09:11:09.241Z,16.23
2023-12-20T09:13:38.272Z,17.98
2023-12-20T09:16:06.957Z,13.98
2023-12-20T09:18:34.930Z,14.50
2023-12-20T09:21:03.289Z,13.35
2023-12-20T09:23:33.210Z,15.47
2023-12-20T09:26:01.391Z,15.32
2023-12-20T09:28:31.215Z,17.75
2023-12-20T09:30:59.787Z,18.65
2023-12-20T09:33:28.120Z,18.92
2023-12-20T09:35:56.367Z,18.33
2023-12-20T09:38:25.689Z,15.45
2023-12-20T09:40:55.240Z,16.33
2023-12-20T09:43:27.485Z,16.50
2023-12-20T09:46:03.507Z,22.85
2023-12-20T09:48:34.141Z,18.95
2023-12-20T09:51:02.623Z,16.80
2023-12-20T09:53:31.847Z,18.08
2023-12-20T09:56:02.705Z,18.33
2023-12-20T09:58:31.044Z,13.38
2023-12-20T10:01:00.847Z,13.43
2023-12-20T10:03:30.796Z,15.50
2023-12-20T10:05:59.949Z,16.10
2023-12-20T10:10:59.264Z,20.27
2023-12-20T10:13:27.649Z,13.40
2023-12-20T10:15:59.188Z,14.85
2023-12-20T10:18:38.067Z,20.38
2023-12-20T10:21:09.338Z,16.73
2023-12-20T10:23:37.384Z,16.98
2023-12-20T10:26:05.999Z,9.90
2023-12-20T10:28:37.844Z,18.65
2023-12-20T10:31:06.298Z,13.93
2023-12-20T10:33:36.174Z,15.63
2023-12-20T10:36:06.005Z,17.08
2023-12-20T10:38:33.952Z,16.58
2023-12-20T10:41:07.403Z,12.27
2023-12-20T10:43:35.895Z,19.17
2023-12-20T10:46:05.778Z,15.93
2023-12-20T10:48:37.813Z,18.77
2023-12-20T10:51:07.655Z,15.80
2023-12-20T10:53:39.052Z,16.30
2023-12-20T10:56:10.370Z,17.52
2023-12-20T10:58:44.427Z,14.50
2023-12-20T11:01:15.179Z,13.10
2023-12-20T11:03:50.924Z,9.30
2023-12-20T11:06:32.158Z,13.65
2023-12-20T11:09:15.268Z,15.85
2023-12-20T11:11:59.264Z,14.88
2023-12-20T11:14:34.769Z,15.85
2023-12-20T11:17:15.242Z,16.85
2023-12-20T11:20:08.564Z,12.48
2023-12-20T11:22:39.633Z,20.65
2023-12-20T11:25:12.294Z,16.35
2023-12-20T11:27:44.875Z,12.98
2023-12-20T11:30:18.413Z,15.35
2023-12-20T11:32:48.715Z,13.88
2023-12-20T11:35:23.419Z,17.60
2023-12-20T11:37:53.370Z,11.45
2023-12-20T11:40:23.730Z,10.13
2023-12-20T11:42:53.901Z,11.18
2023-12-20T11:47:55.597Z,13.77
2023-12-20T11:50:27.300Z,13.38
2023-12-20T11:52:56.437Z,9.85
2023-12-20T11:55:24.819Z,13.23
2023-12-20T11:57:54.583Z,11.27
2023-12-20T12:00:22.782Z,13.63
2023-12-20T12:02:59.176Z,12.20
2023-12-20T12:05:28.833Z,16.58
2023-12-20T12:07:57.463Z,8.45
2023-12-20T12:10:26.034Z,12.15
2023-12-20T12:12:54.402Z,10.82
2023-12-20T12:18:10.064Z,10.40
2023-12-20T12:23:08.295Z,8.60
2023-12-20T12:25:42.399Z,9.32
2023-12-20T12:28:14.546Z,12.38
2023-12-20T12:30:50.355Z,9.77
2023-12-20T12:33:23.102Z,12.63
2023-12-20T12:35:53.079Z,12.98
2023-12-20T12:38:22.743Z,8.95
2023-12-20T12:40:52.038Z,11.27
2023-12-20T12:43:20.323Z,11.07
2023-12-20T12:45:48.984Z,7.30
2023-12-20T12:48:17.430Z,14.65
2023-12-20T12:50:46.688Z,9.07
2023-12-20T12:53:16.077Z,8.95
2023-12-20T12:58:14.228Z,12.70
2023-12-20T13:00:43.563Z,13.52
2023-12-20T13:03:12.184Z,14.95
2023-12-20T13:05:44.347Z,12.23
2023-12-20T13:08:15.917Z,17.92
2023-12-20T13:10:45.362Z,14.38
2023-12-20T13:13:13.337Z,13.45
2023-12-20T13:15:42.379Z,14.77
2023-12-20T13:18:11.087Z,11.75
2023-12-20T13:20:41.748Z,15.38
2023-12-20T13:23:11.057Z,14.50
2023-12-20T13:25:42.453Z,12.23
2023-12-20T13:28:12.318Z,11.07
2023-12-20T13:30:41.048Z,4.73
2023-12-20T13:33:09.738Z,6.20
2023-12-20T13:35:39.655Z,4.85
2023-12-20T13:38:08.828Z,9.50
2023-12-20T13:40:36.827Z,7.70
2023-12-20T13:43:07.342Z,5.43
2023-12-20T13:45:35.538Z,5.38
2023-12-20T13:48:03.636Z,4.93
2023-12-20T13:50:33.017Z,9.00
2023-12-20T13:53:02.059Z,5.18
2023-12-20T13:55:31.578Z,7.07
2023-12-20T13:58:00.378Z,5.13
2023-12-20T14:00:30.027Z,3.50
2023-12-20T14:03:00.326Z,6.80
2023-12-20T14:10:31.251Z,2.97
2023-12-20T14:13:00.961Z,4.32
2023-12-20T14:15:32.055Z,5.95
2023-12-20T14:18:00.274Z,3.75
2023-12-20T14:20:28.359Z,4.18
2023-12-20T14:22:57.313Z,4.57
2023-12-20T14:25:25.396Z,7.85
2023-12-20T14:27:54.205Z,2.65
2023-12-20T14:30:22.954Z,5.38
2023-12-20T14:32:52.989Z,3.78
2023-12-20T14:35:21.853Z,2.28
2023-12-20T14:37:53.358Z,2.88
2023-12-20T14:40:21.815Z,4.40
2023-12-20T14:42:50.178Z,5.75
2023-12-20T14:45:20.117Z,5.00
2023-12-20T14:47:49.621Z,6.80
2023-12-20T14:50:20.845Z,8.05
2023-12-20T14:52:49.393Z,4.38
2023-12-20T14:55:18.634Z,7.65
2023-12-20T15:00:17.589Z,12.68
2023-12-20T15:02:47.049Z,5.22
2023-12-20T15:05:16.264Z,10.38
2023-12-20T15:07:46.162Z,5.78
2023-12-20T15:10:15.041Z,4.50
2023-12-20T15:12:43.464Z,5.10
2023-12-20T15:15:12.108Z,2.58
2023-12-20T15:17:40.099Z,6.10
2023-12-20T15:20:11.903Z,7.03
2023-12-20T15:22:40.845Z,5.50
2023-12-20T15:25:11.619Z,5.90
2023-12-20T15:27:40.386Z,8.20
2023-12-20T15:30:11.005Z,5.60
2023-12-20T15:32:41.956Z,3.67
2023-12-20T15:35:10.951Z,4.82
2023-12-20T15:37:40.373Z,5.00
2023-12-20T15:42:42.415Z,6.55
2023-12-20T15:45:11.176Z,5.90
2023-12-20T15:47:40.434Z,5.93
2023-12-20T15:50:09.612Z,4.95
2023-12-20T15:55:09.219Z,7.72
2023-12-20T15:57:45.955Z,5.78
2023-12-20T16:00:22.167Z,4.25
2023-12-20T16:02:50.942Z,4.97
2023-12-20T16:05:20.035Z,7.22
2023-12-20T16:07:49.092Z,7.20
2023-12-20T16:10:17.606Z,6.30
2023-12-20T16:12:47.140Z,6.15
2023-12-20T16:15:16.376Z,6.13
2023-12-20T16:17:44.671Z,5.35
2023-12-20T16:20:15.553Z,9.48
2023-12-20T16:22:44.416Z,4.88
2023-12-20T16:25:12.566Z,5.80
2023-12-20T16:27:41.217Z,6.32
2023-12-20T16:30:11.921Z,5.82
2023-12-20T16:32:40.128Z,7.30
2023-12-20T16:35:08.763Z,9.95
2023-12-20T16:37:39.643Z,11.73
2023-12-20T16:40:09.282Z,15.25
2023-12-20T16:42:37.341Z,10.02
2023-12-20T16:45:09.081Z,11.50
2023-12-20T16:47:38.617Z,8.38
2023-12-20T16:50:08.041Z,12.07
2023-12-20T16:52:37.721Z,15.90
2023-12-20T16:55:07.265Z,20.15
2023-12-20T16:57:37.194Z,16.20
2023-12-20T17:00:06.480Z,14.43
2023-12-20T17:05:05.011Z,17.48
2023-12-20T17:07:34.351Z,12.15
2023-12-20T17:10:02.520Z,16.65
2023-12-20T17:12:31.484Z,10.88
2023-12-20T17:15:01.045Z,15.43
2023-12-20T17:17:29.276Z,11.50
2023-12-20T17:19:57.849Z,15.68
2023-12-20T17:22:27.409Z,17.80
2023-12-20T17:24:55.351Z,16.05
2023-12-20T17:27:24.057Z,15.98
2023-12-20T17:29:50.965Z,12.85
2023-12-20T17:32:19.681Z,17.15
2023-12-20T17:34:47.842Z,16.83
2023-12-20T17:37:16.204Z,22.17
2023-12-20T17:39:45.695Z,22.63
2023-12-20T17:42:15.353Z,23.48
2023-12-20T17:44:43.401Z,23.67
2023-12-20T17:47:12.228Z,22.38
2023-12-20T17:49:41.995Z,20.20
2023-12-20T17:52:16.884Z,20.23
2023-12-20T17:54:47.342Z,23.52
2023-12-20T17:59:43.234Z,23.38
2023-12-20T18:02:12.401Z,21.27
2023-12-20T18:04:40.538Z,21.40
2023-12-20T18:07:09.188Z,23.88
2023-12-20T18:09:37.934Z,24.50
2023-12-20T18:12:09.505Z,25.95
2023-12-20T18:14:38.734Z,26.05
2023-12-20T18:17:06.759Z,24.75
2023-12-20T18:19:36.069Z,24.67
2023-12-20T18:22:05.051Z,22.52
2023-12-20T18:24:33.122Z,26.47
2023-12-20T18:27:01.068Z,22.23
2023-12-20T18:29:31.680Z,26.48
2023-12-20T18:31:59.841Z,21.35
2023-12-20T18:34:28.033Z,23.67
2023-12-20T18:36:57.438Z,23.55
2023-12-20T18:39:25.590Z,26.88
2023-12-20T18:41:54.878Z,20.80
2023-12-20T18:44:23.304Z,28.30
2023-12-20T18:46:52.867Z,24.73
2023-12-20T18:49:21.406Z,31.27
2023-12-20T18:51:51.394Z,26.70
2023-12-20T18:54:21.687Z,27.90
2023-12-20T18:56:51.104Z,26.38
2023-12-20T18:59:20.908Z,26.87
2023-12-20T19:01:49.283Z,30.58
2023-12-20T19:04:18.757Z,31.73
2023-12-20T19:06:47.886Z,29.95
2023-12-20T19:09:17.169Z,33.80
2023-12-20T19:14:15.308Z,32.20
2023-12-20T19:16:43.457Z,29.25
2023-12-20T19:19:11.746Z,36.00
2023-12-20T19:21:43.539Z,30.98
2023-12-20T19:24:12.179Z,30.10
2023-12-20T19:26:40.272Z,35.72
2023-12-20T19:29:09.040Z,35.13
2023-12-20T19:31:37.442Z,35.85
2023-12-20T19:34:06.206Z,37.88
2023-12-20T19:36:35.044Z,31.35
2023-12-20T19:39:04.749Z,30.63
2023-12-20T19:41:33.673Z,31.15
2023-12-20T19:44:04.254Z,29.13
2023-12-20T19:46:32.441Z,31.00
2023-12-20T19:49:00.587Z,27.48
2023-12-20T19:51:29.525Z,33.58
2023-12-20T19:53:57.632Z,32.80
2023-12-20T19:56:27.176Z,35.92
2023-12-20T19:58:57.445Z,33.20
2023-12-20T20:01:26.394Z,30.25
2023-12-20T20:03:55.080Z,40.03
2023-12-20T20:06:24.369Z,29.55
2023-12-20T20:08:52.611Z,33.58
2023-12-20T20:11:29.962Z,30.93
2023-12-20T20:14:05.345Z,29.33
2023-12-20T20:16:34.344Z,28.77
2023-12-20T20:19:02.737Z,35.63
2023-12-20T20:21:31.900Z,30.70
2023-12-20T20:23:59.918Z,28.98
2023-12-20T20:26:28.234Z,30.10
2023-12-20T20:28:56.656Z,30.00
2023-12-20T20:31:26.176Z,26.73
2023-12-20T20:33:54.520Z,30.63
2023-12-20T20:36:24.183Z,28.15
2023-12-20T20:38:52.092Z,28.73
2023-12-20T20:41:20.551Z,26.98
2023-12-20T20:43:49.176Z,28.10
2023-12-20T20:46:20.349Z,27.15
2023-12-20T20:48:52.228Z,27.05
2023-12-20T20:51:21.260Z,27.83
2023-12-20T20:53:53.897Z,23.23
2023-12-20T20:56:27.162Z,25.58
2023-12-20T20:58:55.121Z,23.13
2023-12-20T21:01:23.965Z,25.05
2023-12-20T21:03:55.556Z,23.05
2023-12-20T21:06:23.940Z,21.15
2023-12-20T21:08:51.905Z,23.10
2023-12-20T21:11:22.599Z,19.30
2023-12-20T21:13:51.362Z,22.67
2023-12-20T21:16:19.667Z,18.20
2023-12-20T21:18:49.203Z,19.17
2023-12-20T21:21:19.280Z,21.52
2023-12-20T21:23:48.040Z,18.23
2023-12-20T21:26:16.744Z,21.05
2023-12-20T21:28:44.958Z,17.92
2023-12-20T21:31:13.718Z,16.67
2023-12-20T21:33:43.629Z,14.85
2023-12-20T21:36:11.934Z,16.58
2023-12-20T21:38:42.121Z,17.05
2023-12-20T21:41:14.005Z,17.00
2023-12-20T21:43:46.639Z,16.23
2023-12-20T21:46:14.607Z,16.83
2023-12-20T21:48:42.709Z,15.55
2023-12-20T21:51:11.114Z,16.88
2023-12-20T21:53:40.940Z,14.00
2023-12-20T21:56:11.451Z,14.77
2023-12-20T21:58:40.580Z,13.60
2023-12-20T22:01:08.738Z,13.93
2023-12-20T22:03:41.258Z,11.30
2023-12-20T22:06:11.722Z,13.27
2023-12-20T22:08:39.804Z,15.20
2023-12-20T22:11:11.649Z,14.68
2023-12-20T22:13:40.340Z,10.73
2023-12-20T22:16:09.678Z,14.25
2023-12-20T22:21:06.830Z,8.85
2023-12-20T22:23:36.113Z,13.65
2023-12-20T22:26:04.808Z,13.48
2023-12-20T22:28:35.174Z,13.90
2023-12-20T22:31:04.857Z,12.93
2023-12-20T22:33:32.927Z,14.35
2023-12-20T22:36:01.656Z,13.88
2023-12-20T22:38:31.853Z,13.48
2023-12-20T22:41:00.157Z,12.93
2023-12-20T22:43:28.246Z,11.73
2023-12-20T22:45:58.674Z,9.75
2023-12-20T22:48:26.413Z,10.10
2023-12-20T22:50:54.569Z,9.10
2023-12-20T22:53:24.047Z,10.27
2023-12-20T22:55:52.022Z,7.78
2023-12-20T22:58:20.687Z,9.45
2023-12-20T23:00:49.159Z,8.20
2023-12-20T23:03:55.073Z,7.10
2023-12-20T23:07:02.811Z,8.43
2023-12-20T23:09:49.844Z,8.43
2023-12-20T23:12:18.787Z,8.40
2023-12-20T23:14:46.772Z,9.40
2023-12-20T23:17:15.391Z,8.55
2023-12-20T23:19:45.474Z,7.95
2023-12-20T23:22:14.374Z,9.35
2023-12-20T23:24:42.894Z,8.13
2023-12-20T23:27:12.188Z,8.30
2023-12-20T23:29:40.247Z,7.07
2023-12-20T23:32:08.879Z,8.20
2023-12-20T23:34:37.678Z,8.23
2023-12-20T23:37:08.068Z,7.47
2023-12-20T23:39:37.072Z,7.95
2023-12-20T23:42:05.992Z,8.68
2023-12-20T23:44:34.237Z,6.85
2023-12-20T23:47:02.226Z,7.65
2023-12-20T23:49:31.417Z,7.65
2023-12-20T23:51:59.468Z,8.07
2023-12-20T23:54:29.425Z,9.20
2023-12-20T23:56:57.935Z,7.25
2023-12-20T23:59:26.036Z,6.93
